createdAt,value
2023-09-08T00:01:40.473Z,77.00
2023-09-08T00:06:43.375Z,77.07
2023-09-08T00:11:46.107Z,77.23
2023-09-08T00:16:49.673Z,77.24
2023-09-08T00:21:52.817Z,77.18
2023-09-08T00:26:55.883Z,77.17
2023-09-08T00:31:58.701Z,77.01
2023-09-08T00:37:08.081Z,77.19
2023-09-08T00:42:10.846Z,77.06
2023-09-08T00:47:13.920Z,77.33
2023-09-08T00:52:17.043Z,77.37
2023-09-08T00:57:20.126Z,77.33
2023-09-08T01:02:23.721Z,77.03
2023-09-08T01:07:30.110Z,76.95
2023-09-08T01:12:34.407Z,77.01
2023-09-08T01:17:37.525Z,77.23
2023-09-08T01:23:05.628Z,77.37
2023-09-08T01:28:09.614Z,77.59
2023-09-08T01:33:13.129Z,77.34
2023-09-08T01:38:21.615Z,77.41
2023-09-08T01:43:36.339Z,77.38
2023-09-08T01:48:47.821Z,77.41
2023-09-08T01:53:51.808Z,77.68
2023-09-08T01:58:55.125Z,77.71
2023-09-08T02:03:57.908Z,77.61
2023-09-08T02:09:00.849Z,77.46
2023-09-08T02:14:04.375Z,77.41
2023-09-08T02:19:07.499Z,77.51
2023-09-08T02:24:11.236Z,77.49
2023-09-08T02:29:14.217Z,77.40
2023-09-08T02:34:17.479Z,77.31
2023-09-08T02:39:20.259Z,77.40
2023-09-08T02:44:24.225Z,78.00
2023-09-08T02:49:27.057Z,78.12
2023-09-08T02:54:29.948Z,77.95
2023-09-08T02:59:32.688Z,78.02
2023-09-08T03:04:35.487Z,77.86
2023-09-08T03:09:38.305Z,78.34
2023-09-08T03:14:41.100Z,78.13
2023-09-08T03:19:46.915Z,78.38
2023-09-08T03:24:49.823Z,78.28
2023-09-08T03:29:52.743Z,78.45
2023-09-08T03:34:55.477Z,78.24
2023-09-08T03:39:58.238Z,78.45
2023-09-08T03:45:01.261Z,78.61
2023-09-08T03:50:04.283Z,78.85
2023-09-08T03:55:07.371Z,78.95
2023-09-08T04:00:13.202Z,79.34
2023-09-08T04:05:17.547Z,79.20
2023-09-08T04:10:21.441Z,79.24
2023-09-08T04:15:24.384Z,79.49
2023-09-08T04:20:30.163Z,79.08
2023-09-08T04:25:32.880Z,78.99
2023-09-08T04:30:35.659Z,79.17
2023-09-08T04:35:38.445Z,78.92
2023-09-08T04:40:42.388Z,79.04
2023-09-08T04:45:45.187Z,79.14
2023-09-08T04:50:48.020Z,79.01
2023-09-08T04:55:52.043Z,79.76
2023-09-08T05:00:55.152Z,79.68
2023-09-08T05:05:58.326Z,79.51
2023-09-08T05:11:02.015Z,79.82
2023-09-08T05:16:12.875Z,80.02
2023-09-08T05:21:15.778Z,79.75
2023-09-08T05:26:18.633Z,79.79
2023-09-08T05:31:21.813Z,79.41
2023-09-08T05:36:24.613Z,79.58
2023-09-08T05:41:27.855Z,79.75
2023-09-08T05:46:31.148Z,79.61
2023-09-08T05:51:34.083Z,79.45
2023-09-08T05:56:38.439Z,79.35
2023-09-08T06:01:41.870Z,79.14
2023-09-08T06:06:45.004Z,79.16
2023-09-08T06:11:48.807Z,79.38
2023-09-08T06:16:51.744Z,79.42
2023-09-08T06:21:54.823Z,79.03
2023-09-08T06:26:58.168Z,79.05
2023-09-08T06:32:00.990Z,78.46
2023-09-08T06:37:04.208Z,78.08
2023-09-08T06:42:07.696Z,77.40
2023-09-08T06:47:19.144Z,76.77
2023-09-08T06:52:26.556Z,75.55
2023-09-08T06:57:30.146Z,74.75
2023-09-08T07:02:33.443Z,74.07
2023-09-08T07:07:38.735Z,73.38
2023-09-08T07:12:41.741Z,72.97
2023-09-08T07:17:44.976Z,72.17
2023-09-08T07:22:48.370Z,71.74
2023-09-08T07:27:53.835Z,70.88
2023-09-08T07:32:59.446Z,70.44
2023-09-08T07:38:03.240Z,69.90
2023-09-08T07:43:06.752Z,69.19
2023-09-08T07:48:10.055Z,68.18
2023-09-08T07:53:13.621Z,66.95
2023-09-08T07:58:23.367Z,65.28
2023-09-08T08:03:26.428Z,64.56
2023-09-08T08:08:29.816Z,63.94
2023-09-08T08:13:33.055Z,63.91
2023-09-08T08:18:37.032Z,63.94
2023-09-08T08:23:45.471Z,63.57
2023-09-08T08:28:54.811Z,63.74
2023-09-08T08:34:04.597Z,62.55
2023-09-08T08:39:07.873Z,61.64
2023-09-08T08:44:11.056Z,61.13
2023-09-08T08:49:17.281Z,60.24
2023-09-08T08:54:21.666Z,59.06
2023-09-08T08:59:25.233Z,58.40
2023-09-08T09:04:36.339Z,56.64
2023-09-08T09:09:41.811Z,55.42
2023-09-08T09:15:09.319Z,54.35
2023-09-08T09:20:18.813Z,54.15
2023-09-08T09:25:35.451Z,53.92
2023-09-08T09:30:52.745Z,53.64
2023-09-08T09:35:58.699Z,51.29
2023-09-08T09:41:05.602Z,50.39
2023-09-08T09:46:10.311Z,48.27
2023-09-08T09:51:21.729Z,47.87
2023-09-08T09:56:25.771Z,47.05
2023-09-08T10:01:31.189Z,46.08
2023-09-08T10:06:39.124Z,45.11
2023-09-08T10:11:52.591Z,45.10
2023-09-08T10:17:00.922Z,45.28
2023-09-08T10:22:07.719Z,45.07
2023-09-08T10:27:14.150Z,44.24
2023-09-08T10:32:19.345Z,44.00
2023-09-08T10:37:32.215Z,43.79
2023-09-08T10:42:41.882Z,43.48
2023-09-08T10:47:48.421Z,42.83
2023-09-08T10:53:12.103Z,42.62
2023-09-08T10:58:44.165Z,41.64
2023-09-08T11:03:58.485Z,41.52
2023-09-08T11:09:08.669Z,41.62
2023-09-08T11:14:11.680Z,41.46
2023-09-08T11:19:14.562Z,40.28
2023-09-08T11:24:19.379Z,40.42
2023-09-08T11:29:22.240Z,40.33
2023-09-08T11:34:25.349Z,40.46
2023-09-08T11:39:28.118Z,39.37
2023-09-08T11:44:31.402Z,39.84
2023-09-08T11:49:36.434Z,39.88
2023-09-08T11:54:51.851Z,39.46
2023-09-08T12:00:01.125Z,39.27
2023-09-08T12:05:04.450Z,38.56
2023-09-08T12:10:14.173Z,38.27
2023-09-08T12:15:37.640Z,38.38
2023-09-08T12:20:43.603Z,37.45
2023-09-08T12:25:49.070Z,37.72
2023-09-08T12:30:52.691Z,36.89
2023-09-08T12:35:55.852Z,37.63
2023-09-08T12:40:58.888Z,37.32
2023-09-08T12:46:04.316Z,36.78
2023-09-08T12:51:07.224Z,36.76
2023-09-08T12:56:10.087Z,36.84
2023-09-08T13:01:12.903Z,35.39
2023-09-08T13:06:15.849Z,34.36
2023-09-08T13:11:18.742Z,33.74
2023-09-08T13:16:21.787Z,34.10
2023-09-08T13:21:25.921Z,35.16
2023-09-08T13:26:28.918Z,34.64
2023-09-08T13:31:31.900Z,32.81
2023-09-08T13:36:35.294Z,32.45
2023-09-08T13:42:07.612Z,33.89
2023-09-08T13:47:10.704Z,35.14
2023-09-08T13:52:15.767Z,36.15
2023-09-08T13:57:22.137Z,36.83
2023-09-08T14:02:41.901Z,37.17
2023-09-08T14:07:47.252Z,37.93
2023-09-08T14:12:57.892Z,38.42
2023-09-08T14:18:00.798Z,39.05
2023-09-08T14:23:03.836Z,38.39
2023-09-08T14:28:07.441Z,36.82
2023-09-08T14:33:10.533Z,37.11
2023-09-08T14:38:17.642Z,37.41
2023-09-08T14:43:20.806Z,37.87
2023-09-08T14:48:23.838Z,36.24
2023-09-08T14:53:29.167Z,32.80
2023-09-08T14:58:35.371Z,30.24
2023-09-08T15:03:38.683Z,28.43
2023-09-08T15:08:47.194Z,26.18
2023-09-08T15:13:50.050Z,24.88
2023-09-08T15:18:52.923Z,23.94
2023-09-08T15:23:56.303Z,23.32
2023-09-08T15:29:00.347Z,23.06
2023-09-08T15:34:03.159Z,24.24
2023-09-08T15:39:06.032Z,26.20
2023-09-08T15:44:08.868Z,27.94
2023-09-08T15:49:11.650Z,29.14
2023-09-08T15:54:14.480Z,29.08
2023-09-08T15:59:18.165Z,28.72
2023-09-08T16:04:22.161Z,27.43
2023-09-08T16:09:25.420Z,27.15
2023-09-08T16:14:28.219Z,26.91
2023-09-08T16:19:30.984Z,26.69
2023-09-08T16:24:33.739Z,27.15
2023-09-08T16:29:36.484Z,28.23
2023-09-08T16:34:39.287Z,30.22
2023-09-08T16:39:42.173Z,32.78
2023-09-08T16:44:46.151Z,34.42
2023-09-08T16:49:49.199Z,36.01
2023-09-08T16:54:52.108Z,37.65
2023-09-08T16:59:54.865Z,39.14
2023-09-08T17:04:57.631Z,40.51
2023-09-08T17:10:00.604Z,41.62
2023-09-08T17:15:04.123Z,42.64
2023-09-08T17:20:08.086Z,43.51
2023-09-08T17:25:12.581Z,44.35
2023-09-08T17:30:15.393Z,45.08
2023-09-08T17:35:18.325Z,45.54
2023-09-08T17:40:21.281Z,45.94
2023-09-08T17:45:24.474Z,46.33
2023-09-08T17:50:27.826Z,46.82
2023-09-08T17:55:30.825Z,47.52
2023-09-08T18:00:33.664Z,48.07
2023-09-08T18:05:37.457Z,48.60
2023-09-08T18:10:43.340Z,49.29
2023-09-08T18:15:46.183Z,49.66
2023-09-08T18:20:48.962Z,50.15
2023-09-08T18:25:53.792Z,50.46
2023-09-08T18:30:57.501Z,50.81
2023-09-08T18:36:00.457Z,51.15
2023-09-08T18:41:03.784Z,51.38
2023-09-08T18:46:07.164Z,51.76
2023-09-08T18:51:10.025Z,52.27
2023-09-08T18:56:15.074Z,52.73
2023-09-08T19:01:17.848Z,53.06
2023-09-08T19:06:20.899Z,53.57
2023-09-08T19:11:23.715Z,54.03
2023-09-08T19:16:26.568Z,54.51
2023-09-08T19:21:29.784Z,55.05
2023-09-08T19:26:32.633Z,55.87
2023-09-08T19:31:35.361Z,56.31
2023-09-08T19:36:41.299Z,56.73
2023-09-08T19:41:44.222Z,57.19
2023-09-08T19:46:47.006Z,57.47
2023-09-08T19:51:49.794Z,57.99
2023-09-08T19:56:52.741Z,58.52
2023-09-08T20:01:55.571Z,59.21
2023-09-08T20:06:58.571Z,60.18
2023-09-08T20:12:01.447Z,60.99
2023-09-08T20:17:05.098Z,61.95
2023-09-08T20:22:08.399Z,62.58
2023-09-08T20:27:11.947Z,62.98
2023-09-08T20:32:16.050Z,63.42
2023-09-08T20:37:18.938Z,63.74
2023-09-08T20:42:21.764Z,64.19
2023-09-08T20:47:24.533Z,64.85
2023-09-08T20:52:28.291Z,65.38
2023-09-08T20:57:31.699Z,65.88
2023-09-08T21:02:34.522Z,66.34
2023-09-08T21:07:37.377Z,66.97
2023-09-08T21:12:40.160Z,67.29
2023-09-08T21:17:42.980Z,67.72
2023-09-08T21:22:45.710Z,67.76
2023-09-08T21:27:48.440Z,68.30
2023-09-08T21:32:51.318Z,68.33
2023-09-08T21:37:54.205Z,68.68
2023-09-08T21:42:58.147Z,69.11
2023-09-08T21:48:01.027Z,69.77
2023-09-08T21:53:04.224Z,69.83
2023-09-08T21:58:06.997Z,70.16
2023-09-08T22:03:10.688Z,70.46
2023-09-08T22:08:13.634Z,70.48
2023-09-08T22:13:16.416Z,70.54
2023-09-08T22:18:19.224Z,70.65
2023-09-08T22:23:22.122Z,71.25
2023-09-08T22:28:24.905Z,71.65
2023-09-08T22:33:27.962Z,72.09
2023-09-08T22:38:32.056Z,72.07
2023-09-08T22:43:35.194Z,72.27
2023-09-08T22:48:38.337Z,72.34
2023-09-08T22:53:41.147Z,72.21
2023-09-08T22:58:43.978Z,72.52
2023-09-08T23:03:46.848Z,72.59
2023-09-08T23:08:49.695Z,72.79
2023-09-08T23:13:53.740Z,72.90
2023-09-08T23:18:58.749Z,73.21
2023-09-08T23:24:01.490Z,73.42
2023-09-08T23:29:11.559Z,73.65
2023-09-08T23:34:14.919Z,74.38
2023-09-08T23:39:19.270Z,74.86
2023-09-08T23:44:23.691Z,74.98
2023-09-08T23:49:26.554Z,74.94
2023-09-08T23:54:29.353Z,74.95
2023-09-08T23:59:32.201Z,74.80
